Time;durP1;ratioP1;P1;durP2;ratioP2;P2;SDS_P1;SDS_P2;PMS_P1;PMS_P2;Temp;Humidity;BMP_temperature;BMP_pressure;BME280_temperature;BME280_humidity;BME280_pressure;Samples;Min_cycle;Max_cycle;Signal;HPM_P1;HPM_P2
2021/06/24 00:00:36;;;;;;;10.43;7.60;;;16.80;78.20;;;;;;4959458;28;20038;-76
2021/06/24 00:03:02;;;;;;;14.15;8.70;;;16.70;78.30;;;;;;4977003;28;20035;-77
2021/06/24 00:05:28;;;;;;;13.45;9.48;;;16.70;78.30;;;;;;4959663;28;20084;-76
2021/06/24 00:07:53;;;;;;;10.05;7.90;;;16.70;78.30;;;;;;4960451;28;20039;-78
2021/06/24 00:10:19;;;;;;;12.90;8.73;;;16.70;78.30;;;;;;4944371;28;20086;-76
2021/06/24 00:12:45;;;;;;;16.20;10.82;;;16.60;78.20;;;;;;4944002;28;20464;-76
2021/06/24 00:15:11;;;;;;;13.68;9.80;;;16.70;78.30;;;;;;4959902;28;20042;-76
2021/06/24 00:17:37;;;;;;;13.55;8.77;;;16.60;78.20;;;;;;4976796;28;20023;-76
2021/06/24 00:20:03;;;;;;;8.70;7.25;;;16.70;78.30;;;;;;4959630;28;20435;-76
2021/06/24 00:22:29;;;;;;;15.35;10.25;;;16.70;78.20;;;;;;4958662;28;20050;-76
2021/06/24 00:24:54;;;;;;;13.70;8.38;;;16.70;78.20;;;;;;4959078;28;20039;-76
2021/06/24 00:27:20;;;;;;;13.80;9.02;;;16.70;78.20;;;;;;4959386;28;20027;-74
2021/06/24 00:29:46;;;;;;;14.80;9.23;;;16.70;78.20;;;;;;4959329;28;20031;-76
2021/06/24 00:32:11;;;;;;;13.65;10.13;;;16.70;78.20;;;;;;4943410;28;20038;-76
2021/06/24 00:34:37;;;;;;;11.98;8.82;;;16.70;78.20;;;;;;4943115;28;20041;-76
2021/06/24 00:37:03;;;;;;;12.65;8.07;;;16.70;78.30;;;;;;4976336;28;20058;-75
2021/06/24 00:39:29;;;;;;;13.10;7.10;;;16.60;78.40;;;;;;4976695;28;20525;-77
2021/06/24 00:41:55;;;;;;;15.07;10.73;;;16.60;78.40;;;;;;4976375;28;20030;-75
2021/06/24 00:44:21;;;;;;;13.43;7.40;;;16.60;78.50;;;;;;4959513;28;20081;-76
2021/06/24 00:46:46;;;;;;;12.68;7.40;;;16.50;78.50;;;;;;4976291;28;20110;-76
2021/06/24 00:49:12;;;;;;;10.40;7.43;;;16.50;78.60;;;;;;4943222;28;20027;-75
2021/06/24 00:51:38;;;;;;;11.38;6.53;;;16.40;78.60;;;;;;4958669;28;20137;-75
2021/06/24 00:54:04;;;;;;;11.00;7.53;;;16.40;78.80;;;;;;4958995;28;20034;-76
2021/06/24 00:56:31;;;;;;;13.63;7.10;;;16.30;79.10;;;;;;4959371;28;20052;-77
2021/06/24 00:59:02;;;;;;;14.23;7.88;;;16.30;79.20;;;;;;4958674;28;20524;-76
2021/06/24 01:01:29;;;;;;;13.75;8.30;;;16.30;79.40;;;;;;4959037;28;20480;-77
2021/06/24 01:03:54;;;;;;;16.08;8.68;;;16.20;79.40;;;;;;4958540;28;20057;-77
2021/06/24 01:06:21;;;;;;;11.13;7.15;;;16.20;79.50;;;;;;4958808;28;20058;-77
2021/06/24 01:08:46;;;;;;;12.00;9.15;;;16.20;79.40;;;;;;4975824;28;20061;-76
2021/06/24 01:11:13;;;;;;;12.13;7.90;;;16.30;79.30;;;;;;4942499;28;20086;-77
2021/06/24 01:13:39;;;;;;;9.93;7.10;;;16.30;79.30;;;;;;4975299;28;20513;-77
2021/06/24 01:16:04;;;;;;;12.15;9.13;;;16.30;79.30;;;;;;4942259;28;20066;-76
2021/06/24 01:18:30;;;;;;;12.30;7.38;;;16.30;79.40;;;;;;4958420;28;20474;-76
2021/06/24 01:20:56;;;;;;;12.63;7.38;;;16.30;79.50;;;;;;4958148;28;20109;-77
2021/06/24 01:23:22;;;;;;;11.23;8.02;;;16.20;79.50;;;;;;4958704;28;20027;-77
2021/06/24 01:25:47;;;;;;;12.25;8.20;;;16.20;79.60;;;;;;4958162;28;20391;-77
2021/06/24 01:28:13;;;;;;;16.30;8.18;;;16.20;79.70;;;;;;4975297;28;20034;-76
2021/06/24 01:30:41;;;;;;;11.30;8.23;;;16.10;79.80;;;;;;4958062;28;20019;-80
2021/06/24 01:33:08;;;;;;;14.20;8.43;;;16.10;79.90;;;;;;4957822;28;20027;-76
2021/06/24 01:35:35;;;;;;;12.38;7.75;;;16.00;79.90;;;;;;4957409;28;20093;-76
2021/06/24 01:38:05;;;;;;;11.98;7.88;;;16.00;80.10;;;;;;4954815;29;20051;-76
2021/06/24 01:40:32;;;;;;;14.63;8.82;;;16.00;80.20;;;;;;4955135;29;20039;-77
2021/06/24 01:42:58;;;;;;;12.50;8.68;;;16.00;80.30;;;;;;4954587;29;20047;-76
2021/06/24 01:45:24;;;;;;;13.55;9.13;;;16.00;80.40;;;;;;4954679;29;20471;-77
2021/06/24 01:47:50;;;;;;;11.70;9.10;;;15.90;80.40;;;;;;4954450;29;20042;-76
2021/06/24 01:50:16;;;;;;;12.20;8.32;;;16.00;80.40;;;;;;4938712;29;20031;-77
2021/06/24 01:52:43;;;;;;;13.05;7.75;;;16.00;80.30;;;;;;4955521;28;20031;-78
2021/06/24 01:55:11;;;;;;;14.20;8.02;;;16.00;80.30;;;;;;4939308;29;20039;-76
2021/06/24 01:57:37;;;;;;;13.43;8.35;;;16.00;80.40;;;;;;4954526;29;20082;-76
2021/06/24 02:00:12;;;;;;;12.90;8.18;;;15.90;80.50;;;;;;4938398;29;20035;-76
2021/06/24 02:02:37;;;;;;;12.05;7.90;;;16.00;80.50;;;;;;4939004;29;20036;-76
2021/06/24 02:05:05;;;;;;;10.85;8.07;;;16.00;80.50;;;;;;4954862;29;20345;-75
2021/06/24 02:07:30;;;;;;;15.68;8.38;;;16.00;80.50;;;;;;4955884;28;20028;-76
2021/06/24 02:09:56;;;;;;;12.40;8.63;;;16.00;80.50;;;;;;4954499;29;20031;-76
2021/06/24 02:12:22;;;;;;;13.68;8.10;;;16.00;80.60;;;;;;4939462;29;20035;-76
2021/06/24 02:14:47;;;;;;;12.73;9.32;;;15.90;80.70;;;;;;4955771;28;20039;-76
2021/06/24 02:17:13;;;;;;;14.40;8.25;;;15.90;80.80;;;;;;4954223;29;20020;-76
2021/06/24 02:19:39;;;;;;;10.93;7.70;;;15.90;80.90;;;;;;4954910;29;20031;-76
2021/06/24 02:22:04;;;;;;;11.50;7.72;;;15.90;81.10;;;;;;4954375;29;20497;-76
2021/06/24 02:24:30;;;;;;;12.25;8.32;;;15.80;81.00;;;;;;4954672;29;20031;-76
2021/06/24 02:26:56;;;;;;;15.38;8.48;;;15.80;81.20;;;;;;4955056;29;20468;-76
2021/06/24 02:29:21;;;;;;;13.90;9.25;;;15.70;81.50;;;;;;4938086;29;20550;-76
2021/06/24 02:31:47;;;;;;;10.50;8.57;;;15.70;81.70;;;;;;4954311;29;20032;-77
2021/06/24 02:34:15;;;;;;;10.05;8.05;;;15.70;81.60;;;;;;4954518;29;20019;-75
2021/06/24 02:36:41;;;;;;;11.57;7.93;;;15.70;81.60;;;;;;4957886;28;20063;-76
2021/06/24 02:39:07;;;;;;;11.98;8.43;;;15.80;81.50;;;;;;4957769;28;20447;-76
2021/06/24 02:41:35;;;;;;;10.52;8.35;;;15.70;81.40;;;;;;4974322;28;20031;-76
2021/06/24 02:44:01;;;;;;;13.45;9.40;;;15.70;81.40;;;;;;4956910;28;20491;-76
2021/06/24 02:46:27;;;;;;;16.50;9.27;;;15.60;81.60;;;;;;4956741;28;20039;-76
2021/06/24 02:48:53;;;;;;;13.70;8.35;;;15.70;82.20;;;;;;4956820;28;20038;-76
2021/06/24 02:51:19;;;;;;;14.63;8.63;;;15.60;81.70;;;;;;4956696;28;20062;-76
2021/06/24 02:53:44;;;;;;;12.55;9.30;;;15.60;81.70;;;;;;4957091;28;20051;-76
2021/06/24 02:56:10;;;;;;;11.27;7.20;;;15.60;81.60;;;;;;4973837;28;20027;-76
2021/06/24 02:58:35;;;;;;;12.55;9.52;;;15.60;81.60;;;;;;4975108;28;20474;-76
2021/06/24 03:01:02;;;;;;;16.60;9.55;;;15.60;81.60;;;;;;4956839;28;20126;-76
2021/06/24 03:03:28;;;;;;;12.05;8.25;;;15.60;81.80;;;;;;4956950;28;20023;-75
2021/06/24 03:05:54;;;;;;;12.15;8.38;;;15.60;81.80;;;;;;4974155;28;20041;-76
2021/06/24 03:08:21;;;;;;;14.38;9.13;;;15.60;81.90;;;;;;4941279;28;20134;-76
2021/06/24 03:10:47;;;;;;;15.50;9.02;;;15.50;82.10;;;;;;4957002;28;20387;-76
2021/06/24 03:13:13;;;;;;;11.80;9.05;;;15.50;82.20;;;;;;4957163;28;20091;-75
2021/06/24 03:15:39;;;;;;;14.80;8.95;;;15.50;82.30;;;;;;4956705;28;20542;-76
2021/06/24 03:18:05;;;;;;;15.05;8.57;;;15.50;82.30;;;;;;4974168;28;20062;-76
2021/06/24 03:20:30;;;;;;;11.15;8.30;;;15.40;82.40;;;;;;4973803;28;20030;-76
2021/06/24 03:22:59;;;;;;;12.65;9.02;;;15.40;82.50;;;;;;4956495;28;20038;-76
2021/06/24 03:25:25;;;;;;;15.77;8.70;;;15.40;82.60;;;;;;4973814;28;20038;-75
2021/06/24 03:27:51;;;;;;;15.77;8.38;;;15.40;82.50;;;;;;4973763;28;20035;-77
2021/06/24 03:30:17;;;;;;;14.40;8.88;;;15.40;82.50;;;;;;4973793;28;20379;-76
2021/06/24 03:32:43;;;;;;;11.27;8.20;;;15.40;82.40;;;;;;4973642;28;20030;-75
2021/06/24 03:35:10;;;;;;;12.90;8.07;;;15.40;82.40;;;;;;4973997;28;20038;-75
2021/06/24 03:37:36;;;;;;;12.32;8.90;;;15.50;82.40;;;;;;4956319;28;20047;-76
2021/06/24 03:40:06;;;;;;;13.40;8.00;;;15.50;82.40;;;;;;4940522;28;20037;-76
2021/06/24 03:42:32;;;;;;;15.20;8.30;;;15.50;82.50;;;;;;4973741;28;20086;-76
2021/06/24 03:44:57;;;;;;;14.50;8.30;;;15.40;82.50;;;;;;4940238;28;20039;-77
2021/06/24 03:47:23;;;;;;;13.15;8.23;;;15.30;82.60;;;;;;4956359;28;20030;-75
2021/06/24 03:49:49;;;;;;;10.50;7.90;;;15.40;82.70;;;;;;4973533;28;20031;-75
2021/06/24 03:52:14;;;;;;;15.55;8.35;;;15.40;82.60;;;;;;4973933;28;20130;-76
2021/06/24 03:54:40;;;;;;;12.50;8.60;;;15.40;82.50;;;;;;4956410;28;20483;-76
2021/06/24 03:57:06;;;;;;;15.40;8.68;;;15.40;82.50;;;;;;4957019;28;20030;-76
2021/06/24 03:59:32;;;;;;;11.52;8.40;;;15.40;82.50;;;;;;4959783;28;20023;-76
2021/06/24 04:01:57;;;;;;;14.20;8.27;;;15.50;82.60;;;;;;4977120;28;20035;-77
2021/06/24 04:04:23;;;;;;;16.65;8.23;;;15.40;82.50;;;;;;4944216;28;20030;-76
2021/06/24 04:06:49;;;;;;;12.63;7.85;;;15.40;82.40;;;;;;4959793;28;20113;-76
2021/06/24 04:09:15;;;;;;;15.93;8.48;;;15.50;82.40;;;;;;4976856;28;20387;-76
2021/06/24 04:11:41;;;;;;;14.75;8.02;;;15.60;82.30;;;;;;4960269;28;20486;-76
2021/06/24 04:14:06;;;;;;;12.70;8.40;;;15.60;82.20;;;;;;4960042;28;20543;-76
2021/06/24 04:16:32;;;;;;;23.00;9.10;;;15.60;82.20;;;;;;4959594;28;20046;-75
2021/06/24 04:18:58;;;;;;;15.48;8.18;;;15.60;82.10;;;;;;4960060;28;20035;-76
2021/06/24 04:21:24;;;;;;;9.93;7.35;;;15.60;81.90;;;;;;4959251;28;20035;-76
2021/06/24 04:23:49;;;;;;;12.98;8.30;;;15.70;81.90;;;;;;4976579;28;20031;-76
2021/06/24 04:26:15;;;;;;;13.93;8.00;;;15.60;81.80;;;;;;4976480;28;20463;-76
2021/06/24 04:28:41;;;;;;;11.57;8.10;;;15.60;81.80;;;;;;4959539;28;20027;-76
2021/06/24 04:31:07;;;;;;;10.88;7.38;;;15.60;81.90;;;;;;4959370;28;20027;-76
2021/06/24 04:33:36;;;;;;;11.63;8.30;;;15.60;81.90;;;;;;4976714;28;20547;-75
2021/06/24 04:36:02;;;;;;;11.93;7.45;;;15.70;81.80;;;;;;4976259;28;20039;-76
2021/06/24 04:38:28;;;;;;;11.70;8.05;;;15.80;81.80;;;;;;4976435;28;20058;-75
2021/06/24 04:40:53;;;;;;;17.33;9.20;;;15.80;81.60;;;;;;4976389;28;20026;-75
2021/06/24 04:43:19;;;;;;;13.40;8.57;;;15.90;81.50;;;;;;4966462;28;20035;-75
2021/06/24 04:45:45;;;;;;;12.38;7.93;;;16.00;81.20;;;;;;4961915;28;20034;-76
2021/06/24 04:48:10;;;;;;;14.20;9.18;;;16.10;81.10;;;;;;4959369;28;20031;-76
2021/06/24 04:50:36;;;;;;;12.05;7.68;;;16.70;80.10;;;;;;4943507;28;20467;-76
2021/06/24 04:53:02;;;;;;;14.23;7.40;;;17.20;78.60;;;;;;4958959;28;20034;-76
2021/06/24 04:55:38;;;;;;;9.27;7.07;;;17.90;76.70;;;;;;4959540;28;20447;-75
2021/06/24 04:58:04;;;;;;;11.18;7.43;;;18.10;75.50;;;;;;4963026;28;20027;-77
2021/06/24 05:00:30;;;;;;;10.02;7.00;;;18.10;75.50;;;;;;4983951;28;20027;-75
2021/06/24 05:02:55;;;;;;;14.13;7.53;;;18.40;74.70;;;;;;4957113;28;20063;-75
2021/06/24 05:05:21;;;;;;;10.25;7.32;;;18.80;73.60;;;;;;4992331;28;20034;-77
2021/06/24 05:07:47;;;;;;;14.15;7.30;;;19.00;72.40;;;;;;4975269;28;20027;-75
2021/06/24 05:10:13;;;;;;;11.95;6.57;;;19.70;71.30;;;;;;4973773;28;20039;-76
2021/06/24 05:12:39;;;;;;;8.52;6.32;;;20.50;69.10;;;;;;4964090;28;20023;-76
2021/06/24 05:15:06;;;;;;;13.00;6.28;;;21.40;66.80;;;;;;4976126;28;20061;-76
2021/06/24 05:17:31;;;;;;;10.32;6.07;;;22.10;64.70;;;;;;4959048;28;20042;-76
2021/06/24 05:19:58;;;;;;;9.23;6.22;;;22.70;62.80;;;;;;4942682;28;20467;-75
2021/06/24 05:22:25;;;;;;;9.30;5.00;;;23.00;61.60;;;;;;4942629;28;20064;-75
2021/06/24 05:24:50;;;;;;;9.82;5.00;;;23.30;60.80;;;;;;4958435;28;20568;-75
2021/06/24 05:27:16;;;;;;;8.93;4.97;;;23.70;59.70;;;;;;4975721;28;20062;-75
2021/06/24 05:29:42;;;;;;;11.07;4.53;;;24.20;58.60;;;;;;4958227;28;20047;-76
2021/06/24 05:32:07;;;;;;;10.00;4.40;;;24.60;57.30;;;;;;4975798;28;20054;-77
2021/06/24 05:34:33;;;;;;;10.52;4.80;;;24.80;56.00;;;;;;4975739;28;20033;-76
2021/06/24 05:37:00;;;;;;;8.10;4.80;;;25.00;55.20;;;;;;4975582;28;20399;-76
2021/06/24 05:39:27;;;;;;;6.03;3.60;;;25.10;54.10;;;;;;4975640;28;20487;-76
2021/06/24 05:41:56;;;;;;;7.65;4.10;;;25.20;54.60;;;;;;4958845;28;20038;-76
2021/06/24 05:44:23;;;;;;;8.85;4.30;;;25.30;52.90;;;;;;4942628;28;20043;-77
2021/06/24 05:46:49;;;;;;;6.72;3.85;;;25.10;53.50;;;;;;4942239;28;20054;-76
2021/06/24 05:49:14;;;;;;;5.90;4.18;;;25.10;53.70;;;;;;4942673;28;20335;-78
2021/06/24 05:51:40;;;;;;;10.40;4.47;;;25.30;53.50;;;;;;4958172;28;20031;-77
2021/06/24 05:54:06;;;;;;;7.85;3.70;;;25.70;52.50;;;;;;4973835;28;20438;-76
2021/06/24 05:56:31;;;;;;;7.68;3.30;;;25.70;52.30;;;;;;4973855;28;20026;-77
2021/06/24 05:58:57;;;;;;;9.27;3.80;;;25.60;52.20;;;;;;4957775;28;20464;-76
2021/06/24 06:01:23;;;;;;;6.82;4.38;;;25.30;52.90;;;;;;4941563;28;20068;-78
2021/06/24 06:03:48;;;;;;;7.38;4.25;;;24.80;53.10;;;;;;4974943;28;20023;-77
2021/06/24 06:06:14;;;;;;;7.28;4.93;;;24.50;54.30;;;;;;4975112;28;20035;-78
2021/06/24 06:08:41;;;;;;;7.03;3.85;;;24.60;54.40;;;;;;4958534;28;20023;-76
2021/06/24 06:11:06;;;;;;;8.77;4.57;;;24.90;54.30;;;;;;4975058;28;20018;-79
2021/06/24 06:13:32;;;;;;;11.43;4.22;;;25.40;52.70;;;;;;4957356;28;20391;-76
2021/06/24 06:15:58;;;;;;;7.63;4.45;;;25.40;52.20;;;;;;4957390;28;20026;-77
2021/06/24 06:18:25;;;;;;;13.57;4.60;;;25.20;52.40;;;;;;4941440;28;20521;-76
2021/06/24 06:20:53;;;;;;;7.80;4.72;;;25.40;52.70;;;;;;4957178;28;20121;-77
2021/06/24 06:23:21;;;;;;;6.97;4.40;;;25.30;53.30;;;;;;4957481;28;20065;-77
2021/06/24 06:25:48;;;;;;;10.40;4.47;;;25.60;52.70;;;;;;4957872;28;20106;-76
2021/06/24 06:28:15;;;;;;;8.50;4.45;;;25.70;51.70;;;;;;4974850;28;20077;-77
2021/06/24 06:30:42;;;;;;;9.20;4.40;;;25.90;52.00;;;;;;4958188;28;20121;-77
2021/06/24 06:33:08;;;;;;;9.77;4.85;;;25.90;51.30;;;;;;4974282;28;20019;-77
2021/06/24 06:35:35;;;;;;;8.68;4.57;;;26.10;50.90;;;;;;4957721;28;20542;-77
2021/06/24 06:38:00;;;;;;;9.07;4.72;;;25.60;51.50;;;;;;4953272;29;20189;-77
2021/06/24 06:40:27;;;;;;;8.82;5.00;;;25.50;51.90;;;;;;4954878;28;20067;-78
2021/06/24 06:42:52;;;;;;;9.48;5.22;;;25.80;52.30;;;;;;4955141;28;20036;-79
2021/06/24 06:45:18;;;;;;;8.05;4.75;;;25.70;51.80;;;;;;4954191;29;20038;-78
2021/06/24 06:47:45;;;;;;;8.80;4.70;;;26.00;51.80;;;;;;4953839;29;20052;-77
2021/06/24 06:50:12;;;;;;;10.30;4.45;;;26.60;50.40;;;;;;4954983;29;20070;-76
2021/06/24 06:52:38;;;;;;;8.10;4.45;;;26.80;49.10;;;;;;4954282;29;20066;-77
2021/06/24 06:55:04;;;;;;;11.40;5.22;;;27.10;49.40;;;;;;4969818;28;20075;-77
2021/06/24 06:57:30;;;;;;;8.18;4.15;;;27.30;48.70;;;;;;4954242;29;20047;-76
2021/06/24 06:59:55;;;;;;;8.95;5.00;;;27.20;48.70;;;;;;4955304;29;20057;-77
2021/06/24 07:02:21;;;;;;;8.20;4.68;;;27.30;48.50;;;;;;4953740;29;20032;-82
2021/06/24 07:04:47;;;;;;;8.68;4.90;;;27.60;48.20;;;;;;4953984;29;20031;-76
2021/06/24 07:07:12;;;;;;;9.55;4.30;;;27.90;47.60;;;;;;4955278;28;20045;-77
2021/06/24 07:09:40;;;;;;;8.52;4.60;;;28.10;47.40;;;;;;4954228;29;20046;-76
2021/06/24 07:12:06;;;;;;;8.25;4.15;;;28.30;46.20;;;;;;4955574;28;20110;-76
2021/06/24 07:14:32;;;;;;;12.38;4.65;;;27.60;47.00;;;;;;4937854;29;20064;-77
2021/06/24 07:16:58;;;;;;;5.88;4.57;;;27.70;47.50;;;;;;4953630;29;20050;-77
2021/06/24 07:19:23;;;;;;;9.25;5.22;;;28.20;47.40;;;;;;4954758;29;20114;-79
2021/06/24 07:21:49;;;;;;;7.35;4.57;;;28.50;46.20;;;;;;4953420;29;20062;-79
2021/06/24 07:24:15;;;;;;;9.18;6.25;;;28.70;45.90;;;;;;4953927;29;20035;-78
2021/06/24 07:26:41;;;;;;;8.02;3.97;;;28.90;44.90;;;;;;4955076;28;20035;-76
2021/06/24 07:29:07;;;;;;;9.98;8.10;;;28.20;43.90;;;;;;4955132;28;20447;-77
2021/06/24 07:31:33;;;;;;;11.35;8.45;;;27.50;46.00;;;;;;4938765;29;20027;-76
2021/06/24 07:33:59;;;;;;;10.07;7.55;;;27.70;46.90;;;;;;4957549;29;20027;-77
2021/06/24 07:36:24;;;;;;;8.80;5.97;;;27.90;46.40;;;;;;4957045;29;20036;-78
2021/06/24 07:38:50;;;;;;;7.47;4.90;;;27.80;46.70;;;;;;4956826;29;20075;-77
2021/06/24 07:41:15;;;;;;;9.15;5.72;;;28.10;45.20;;;;;;4957287;29;20078;-77
2021/06/24 07:43:41;;;;;;;5.63;3.97;;;27.90;45.90;;;;;;4957713;29;20031;-76
2021/06/24 07:46:07;;;;;;;5.80;3.70;;;27.50;45.50;;;;;;4958148;29;20077;-79
2021/06/24 07:48:33;;;;;;;9.18;4.32;;;26.90;46.10;;;;;;4941264;29;20375;-77
2021/06/24 07:50:58;;;;;;;6.68;3.40;;;26.10;48.10;;;;;;4941741;29;20086;-76
2021/06/24 07:53:24;;;;;;;8.10;3.88;;;26.30;49.20;;;;;;4958546;29;20514;-77
2021/06/24 07:55:50;;;;;;;10.38;5.78;;;26.40;47.80;;;;;;4956851;29;20111;-76
2021/06/24 07:58:16;;;;;;;10.95;8.93;;;26.00;48.70;;;;;;4940964;29;20028;-78
2021/06/24 08:00:42;;;;;;;14.32;10.43;;;25.50;50.30;;;;;;4957398;29;20038;-79
2021/06/24 08:03:07;;;;;;;9.63;6.90;;;25.80;50.30;;;;;;4957454;29;20027;-78
2021/06/24 08:05:33;;;;;;;13.70;6.07;;;26.20;49.40;;;;;;4940681;29;20041;-80
2021/06/24 08:08:00;;;;;;;9.77;6.00;;;26.30;49.00;;;;;;4956665;29;20031;-76
2021/06/24 08:10:25;;;;;;;7.10;3.95;;;26.10;49.10;;;;;;4958550;29;20091;-77
2021/06/24 08:12:51;;;;;;;8.30;3.50;;;26.00;49.10;;;;;;4972347;28;20428;-78
2021/06/24 08:15:18;;;;;;;8.95;3.67;;;26.20;49.00;;;;;;4957063;29;20472;-77
2021/06/24 08:17:45;;;;;;;9.57;4.75;;;25.40;49.20;;;;;;4956351;29;20114;-78
2021/06/24 08:20:13;;;;;;;7.97;4.10;;;25.50;50.50;;;;;;4956596;29;20031;-76
2021/06/24 08:22:39;;;;;;;5.22;2.72;;;26.00;49.50;;;;;;4956150;29;20456;-77
2021/06/24 08:25:06;;;;;;;4.80;3.25;;;26.20;47.80;;;;;;4957838;28;20023;-77
2021/06/24 08:27:34;;;;;;;6.28;3.30;;;26.30;49.10;;;;;;4941528;29;20066;-77
2021/06/24 08:30:00;;;;;;;7.25;3.42;;;26.80;48.60;;;;;;4956930;29;20110;-77
2021/06/24 08:32:26;;;;;;;7.70;3.20;;;26.80;46.80;;;;;;4957816;28;20062;-77
2021/06/24 08:34:51;;;;;;;7.20;3.28;;;26.30;47.50;;;;;;4957904;29;20039;-77
2021/06/24 08:37:17;;;;;;;7.78;3.40;;;26.20;48.70;;;;;;4957018;29;20522;-76
2021/06/24 08:39:43;;;;;;;6.35;3.13;;;26.10;48.20;;;;;;4958301;28;20487;-77
2021/06/24 08:42:10;;;;;;;3.65;2.47;;;26.10;48.60;;;;;;4958852;28;20054;-78
2021/06/24 08:44:36;;;;;;;4.90;3.08;;;26.50;48.80;;;;;;4958256;28;20058;-79
2021/06/24 08:47:02;;;;;;;4.93;3.00;;;26.80;47.50;;;;;;4957852;29;20039;-76
2021/06/24 08:49:29;;;;;;;9.40;3.55;;;26.60;47.40;;;;;;4941496;29;20036;-77
2021/06/24 08:51:56;;;;;;;6.18;3.00;;;26.10;48.50;;;;;;4958383;29;20027;-76
2021/06/24 08:54:22;;;;;;;4.85;2.78;;;25.90;48.60;;;;;;4955953;29;20455;-76
2021/06/24 08:56:49;;;;;;;7.22;3.47;;;26.00;49.50;;;;;;4955814;29;20042;-77
2021/06/24 08:59:15;;;;;;;6.85;3.75;;;26.10;49.30;;;;;;4956111;29;20483;-77
2021/06/24 09:01:58;;;;;;;4.95;3.05;;;26.10;48.80;;;;;;4939656;29;20042;-79
2021/06/24 09:04:29;;;;;;;5.80;2.83;;;26.00;49.20;;;;;;4955672;29;20483;-76
2021/06/24 09:07:08;;;;;;;8.88;3.70;;;26.10;49.80;;;;;;4955432;29;20078;-77
2021/06/24 09:09:36;;;;;;;6.47;3.13;;;26.10;48.80;;;;;;4956992;28;20035;-76
2021/06/24 09:12:05;;;;;;;5.57;3.75;;;26.10;49.20;;;;;;4957565;28;20506;-76
2021/06/24 09:14:40;;;;;;;6.93;2.95;;;26.50;49.80;;;;;;4957476;29;20110;-77
2021/06/24 09:17:06;;;;;;;5.80;2.90;;;26.80;48.60;;;;;;4956289;29;20090;-76
2021/06/24 09:19:34;;;;;;;7.53;3.85;;;26.90;48.70;;;;;;4956087;29;20031;-77
2021/06/24 09:22:01;;;;;;;7.15;4.22;;;26.50;47.20;;;;;;4955068;29;20459;-78
2021/06/24 09:24:40;;;;;;;5.80;3.30;;;25.90;48.20;;;;;;4956457;28;20016;-77
2021/06/24 09:27:24;;;;;;;4.55;3.50;;;25.50;49.80;;;;;;4956377;28;20031;-77
2021/06/24 09:29:59;;;;;;;7.40;4.40;;;25.70;49.00;;;;;;4954680;29;20118;-76
2021/06/24 09:32:47;;;;;;;5.43;3.35;;;26.00;49.20;;;;;;4956681;29;20035;-77
2021/06/24 09:35:29;;;;;;;6.78;3.60;;;26.00;47.90;;;;;;4955102;29;20062;-76
2021/06/24 09:38:08;;;;;;;7.50;4.38;;;25.90;48.70;;;;;;4964729;28;20529;-77
2021/06/24 09:40:54;;;;;;;5.63;3.80;;;25.40;49.90;;;;;;4975547;28;20101;-75
2021/06/24 09:43:35;;;;;;;6.63;3.38;;;25.50;51.20;;;;;;4957671;28;20046;-76
2021/06/24 09:46:11;;;;;;;6.88;4.72;;;26.30;50.00;;;;;;4958707;28;20052;-76
2021/06/24 09:48:42;;;;;;;7.15;3.33;;;26.60;47.10;;;;;;4973923;28;20026;-76
2021/06/24 09:51:15;;;;;;;6.20;3.58;;;26.00;49.00;;;;;;4975200;28;20033;-74
2021/06/24 09:53:53;;;;;;;8.00;4.50;;;26.00;49.10;;;;;;4975107;28;20022;-76
2021/06/24 09:56:24;;;;;;;5.93;4.70;;;26.20;48.50;;;;;;4974290;28;20129;-75
2021/06/24 09:58:50;;;;;;;4.40;3.10;;;25.80;49.40;;;;;;4975450;28;20031;-75
2021/06/24 10:01:37;;;;;;;7.28;4.10;;;25.80;50.20;;;;;;4975448;28;20387;-75
2021/06/24 10:04:21;;;;;;;7.07;4.05;;;25.80;49.40;;;;;;4957873;28;20482;-74
2021/06/24 10:06:49;;;;;;;4.75;3.47;;;25.40;50.90;;;;;;4957735;28;20471;-78
2021/06/24 10:09:15;;;;;;;8.88;5.60;;;25.30;51.30;;;;;;4957518;28;20023;-76
2021/06/24 10:11:41;;;;;;;7.47;5.28;;;25.40;50.40;;;;;;4974497;28;20027;-75
2021/06/24 10:14:07;;;;;;;5.60;4.53;;;25.30;51.20;;;;;;4974345;28;20102;-75
2021/06/24 10:16:33;;;;;;;9.82;5.68;;;25.40;51.20;;;;;;4957644;28;20042;-77
2021/06/24 10:19:01;;;;;;;8.77;5.72;;;25.40;50.80;;;;;;4957462;28;20033;-75
2021/06/24 10:21:29;;;;;;;5.47;4.65;;;24.80;51.30;;;;;;4957267;28;20490;-76
2021/06/24 10:24:01;;;;;;;9.05;5.43;;;24.90;52.50;;;;;;4974344;28;20029;-76
2021/06/24 10:26:29;;;;;;;5.63;3.95;;;25.30;52.10;;;;;;4974410;28;20415;-76
2021/06/24 10:29:15;;;;;;;6.50;4.70;;;25.60;52.20;;;;;;4974518;28;20022;-76
2021/06/24 10:31:43;;;;;;;6.78;4.47;;;26.00;50.90;;;;;;4957043;28;20033;-76
2021/06/24 10:34:13;;;;;;;8.05;4.15;;;26.10;50.50;;;;;;4974444;28;20045;-76
2021/06/24 10:36:39;;;;;;;5.85;3.97;;;26.30;50.60;;;;;;4974806;28;20039;-77
2021/06/24 10:39:07;;;;;;;6.20;3.85;;;26.80;49.80;;;;;;4956592;28;20058;-76
2021/06/24 10:42:03;;;;;;;7.93;4.38;;;26.70;49.70;;;;;;4974468;28;20030;-76
2021/06/24 10:44:49;;;;;;;5.38;4.72;;;27.00;48.80;;;;;;4965553;28;20185;-76
2021/06/24 10:47:25;;;;;;;6.15;4.47;;;27.20;48.40;;;;;;4974759;28;20041;-76
2021/06/24 10:49:51;;;;;;;7.30;3.90;;;27.30;47.70;;;;;;4974186;28;20395;-76
2021/06/24 10:52:26;;;;;;;4.72;4.00;;;27.30;47.70;;;;;;4956894;28;20029;-76
2021/06/24 10:54:57;;;;;;;5.07;4.18;;;27.40;47.90;;;;;;4975044;28;20251;-76
2021/06/24 10:57:37;;;;;;;5.78;3.78;;;27.50;47.60;;;;;;4974425;28;20038;-76
2021/06/24 11:00:32;;;;;;;9.63;4.70;;;27.30;47.20;;;;;;4974006;28;20093;-76
2021/06/24 11:03:00;;;;;;;6.85;4.25;;;27.30;47.50;;;;;;4973149;28;20375;-80
2021/06/24 11:05:33;;;;;;;6.78;4.30;;;27.40;47.60;;;;;;4957163;28;20081;-76
2021/06/24 11:07:58;;;;;;;8.45;4.80;;;27.60;47.40;;;;;;4977976;28;20044;-80
2021/06/24 11:10:26;;;;;;;6.57;3.90;;;27.50;47.10;;;;;;4978635;28;20089;-76
2021/06/24 11:12:57;;;;;;;7.05;4.20;;;27.60;47.30;;;;;;4960584;28;20101;-76
2021/06/24 11:15:46;;;;;;;7.40;4.28;;;27.70;47.60;;;;;;4977003;28;20070;-77
2021/06/24 11:18:30;;;;;;;7.85;4.75;;;28.00;47.40;;;;;;4978326;28;20081;-76
2021/06/24 11:20:57;;;;;;;7.78;4.43;;;28.50;46.50;;;;;;4979062;28;20463;-78
2021/06/24 11:23:28;;;;;;;6.45;4.05;;;28.70;45.90;;;;;;4961234;28;20041;-74
2021/06/24 11:26:14;;;;;;;5.10;4.10;;;28.70;45.00;;;;;;4977950;28;20107;-76
2021/06/24 11:31:15;;;;;;;4.72;3.25;;;28.60;45.50;;;;;;4977730;28;20073;-75
2021/06/24 11:33:51;;;;;;;5.97;4.72;;;28.40;45.60;;;;;;4978311;28;20518;-75
2021/06/24 11:36:19;;;;;;;6.63;5.95;;;28.30;45.50;;;;;;4962329;28;20035;-76
2021/06/24 11:38:47;;;;;;;6.50;4.60;;;28.00;45.80;;;;;;4960466;28;20080;-76
2021/06/24 11:41:15;;;;;;;7.82;5.43;;;27.90;46.40;;;;;;4977497;28;20531;-77
2021/06/24 11:44:03;;;;;;;7.70;5.18;;;28.00;46.50;;;;;;4960665;28;20031;-76
2021/06/24 11:46:31;;;;;;;5.55;4.50;;;27.80;46.70;;;;;;4977582;28;20019;-75
2021/06/24 11:49:26;;;;;;;6.82;4.88;;;27.50;47.00;;;;;;4959946;28;20022;-75
2021/06/24 12:00:50;;;;;;;8.82;6.10;;;27.00;48.40;;;;;;4962606;28;20097;-76
2021/06/24 12:03:20;;;;;;;6.20;5.60;;;26.90;47.70;;;;;;4946015;28;20030;-76
2021/06/24 12:05:53;;;;;;;6.22;5.35;;;26.80;48.50;;;;;;4959447;28;20026;-76
2021/06/24 12:08:27;;;;;;;7.50;5.55;;;26.60;48.90;;;;;;4976917;28;20019;-76
2021/06/24 12:11:13;;;;;;;7.05;4.78;;;26.50;49.10;;;;;;4959522;28;20071;-76
2021/06/24 12:13:45;;;;;;;6.75;4.50;;;26.60;49.00;;;;;;4959426;28;20034;-76
2021/06/24 12:16:12;;;;;;;6.50;5.30;;;26.60;49.80;;;;;;4943966;28;20109;-76
2021/06/24 12:18:42;;;;;;;7.97;4.80;;;26.60;49.30;;;;;;4958920;28;20375;-76
2021/06/24 12:21:13;;;;;;;9.65;5.63;;;26.60;49.60;;;;;;4976954;28;20471;-78
2021/06/24 12:23:41;;;;;;;6.57;5.75;;;26.60;48.90;;;;;;4959259;28;20023;-76
2021/06/24 12:26:08;;;;;;;6.05;5.28;;;26.80;49.20;;;;;;4976890;28;20102;-78
2021/06/24 12:28:34;;;;;;;8.70;6.22;;;27.10;48.90;;;;;;4959429;28;20015;-77
2021/06/24 12:30:59;;;;;;;6.30;4.88;;;27.30;48.10;;;;;;4944203;28;20031;-76
2021/06/24 12:33:27;;;;;;;8.57;6.82;;;27.60;47.60;;;;;;4942821;28;20035;-78
2021/06/24 12:35:53;;;;;;;8.00;5.28;;;27.60;46.50;;;;;;4977211;28;20126;-77
2021/06/24 12:38:25;;;;;;;6.50;5.90;;;27.10;48.10;;;;;;4959494;28;20071;-77
2021/06/24 12:40:58;;;;;;;7.43;6.73;;;27.20;48.40;;;;;;4976613;28;20439;-77
2021/06/24 12:43:30;;;;;;;8.88;6.07;;;27.30;48.30;;;;;;4958957;28;20030;-76
2021/06/24 12:45:58;;;;;;;7.63;5.93;;;26.60;48.80;;;;;;4977270;28;20052;-76
2021/06/24 12:48:33;;;;;;;8.55;6.68;;;26.60;49.70;;;;;;4959785;28;20026;-77
2021/06/24 12:51:19;;;;;;;7.28;5.75;;;26.90;49.30;;;;;;4959989;28;20022;-76
2021/06/24 12:53:49;;;;;;;8.82;6.20;;;26.90;48.90;;;;;;4958513;28;20038;-76
2021/06/24 12:56:33;;;;;;;7.30;5.88;;;26.90;48.80;;;;;;4976853;28;20061;-77
2021/06/24 12:59:13;;;;;;;9.82;6.20;;;26.70;49.10;;;;;;4959071;28;20019;-76